Glenlivet, United Kingdom
Current Conditions -  °F | °C
As of 5:50 PM on Friday 21 Nov 2014 (Local Time) from EGQK Reporting Station
Broken Clouds Broken Clouds  
Wind Chill: 43°   Ceiling: 2400
Heat Index: 48°   Visibility: 6mi
Dew Point: 43°   Wind: 13mph
Humidity: 82%   Direction: 100°E
Pressure: 29.94"   Gusts: NA
Location:  57.35°N, 3.35°W
Report Text: EGQK 211750Z AUTO 10011KT 9999 BKN024/// 09/06 Q1014
Loading
Personal Weather Stations






























Interactive Weather Map New forecast layout! Learn more

10-Day Weather Forecast

Advertisements
Track Severe Weather on mobile